Share

Livingstone, Zambia

Livingstone (FLLI) Elev 3235 ft | 17.82 °S, 25.82 °E | Change Station

Current weather conditions updated 44 minutes ago

Scattered Clouds
Scattered Clouds
79 °F
Feels Like 79 °F
N
12
Wind Variable Wind from ESE
Sunrise 6:26 AM
Sunset 6:05 PM
Moon Waning Gibbous

Today is forecast to be nearly the same temperature as yesterday.

Pressure 30.12 in
Visibility 6.2 miles
Clouds Scattered Clouds 4000 ft
Dew Point 55 °F
Humidity 44%
Rainfall 0.00 in
Snow Depth Not available.
UV 5 out of 16
Pollen Not available.
Air Quality Not available.
Flu Activity Not available.
METAR FLLI 181300Z 12010KT 9999 SCT040 26/13 Q1020

More Conditions Fewer Conditions

Pressure 30.12 in
Visibility 6.2 miles
Clouds Scattered Clouds 4000 ft
Dew Point 55 °F
Humidity 44%
Rainfall 0.00 in
Snow Depth Not available.
UV 5 out of 16
Pollen Not available.
Air Quality Not available.
Flu Activity Not available.
METAR FLLI 181300Z 12010KT 9999 SCT040 26/13 Q1020

More Conditions Fewer Conditions

10-Day Forecast

Almanac

Astronomy

Apr. 18, 2014 Rise Set
Actual Time 6:26 AM CAT 6:05 PM CAT
Civil Twilight 6:04 AM CAT 6:27 PM CAT
Nautical Twilight 5:39 AM CAT 6:52 PM CAT
Astronomical Twilight 5:13 AM CAT 7:18 PM CAT
Moon 8:49 PM CAT 9:11 AM CAT
Length of Visible Light 12h 22m
Length of Day
11h 38m
Tomorrow will be 0m 55s shorter.
Waning Gibbous, 88% of the Moon is Illuminated
Today
Waning Gibbous
Apr 22
Last Quarter
Apr 29
New
May 6
First Quarter
May 14
Full

Yesterday's Extremes

Country Highs Country Lows

Community

  • What's for Lunch?
    What's for Lunch?
  • SUNRISE THROUGH THE TREES.
    SUNRISE THROUGH THE TREES.
  • Dog Wood Blossoms
    Dog Wood Blossoms
  • Morning Light
    Morning Light
  • New Day
    New Day

WunderPhotos

Upload Photos

1,702,371 photos uploaded!

Nearby

Snow Depth

Not available.

Coastal Water Temperatures

Place Temperature
No Stations Reporting

Earthquake Activity

City Distance Mag. Time & Date
No recent earthquake activity has been reported nearby.
Minimum magnitude displayed is 2.5.

Nearby Weather Stations

There are no personal weather stations in this area.

What do you think?

We're not finished. Please let us know what you like, what you don't like, and what you are still missing.